createdAt,value
2022-09-06T00:04:44.020Z,15.10
2022-09-06T00:09:53.503Z,15.00
2022-09-06T00:14:56.963Z,14.90
2022-09-06T00:20:00.337Z,14.90
2022-09-06T00:25:09.648Z,14.80
2022-09-06T00:30:14.027Z,14.80
2022-09-06T00:35:20.973Z,14.70
2022-09-06T00:40:26.470Z,14.80
2022-09-06T00:45:31.284Z,14.80
2022-09-06T00:50:35.256Z,14.80
2022-09-06T00:55:41.690Z,14.70
2022-09-06T01:00:45.873Z,14.70
2022-09-06T01:05:58.212Z,14.70
2022-09-06T01:11:20.355Z,14.70
2022-09-06T01:16:35.770Z,14.70
2022-09-06T01:21:48.973Z,14.70
2022-09-06T01:27:33.868Z,14.70
2022-09-06T01:32:49.161Z,14.80
2022-09-06T01:37:52.679Z,14.80
2022-09-06T01:42:59.139Z,14.70
2022-09-06T01:48:11.598Z,14.70
2022-09-06T01:53:32.662Z,14.70
2022-09-06T01:59:03.689Z,14.60
2022-09-06T02:04:19.535Z,14.60
2022-09-06T02:09:26.481Z,14.60
2022-09-06T02:14:34.855Z,14.60
2022-09-06T02:19:48.844Z,14.60
2022-09-06T02:24:54.628Z,14.50
2022-09-06T02:29:57.946Z,14.60
2022-09-06T02:35:09.835Z,14.60
2022-09-06T02:40:13.596Z,14.60
2022-09-06T02:45:16.819Z,14.60
2022-09-06T02:50:23.497Z,14.60
2022-09-06T02:55:27.701Z,14.50
2022-09-06T03:00:34.431Z,14.70
2022-09-06T03:05:39.956Z,14.80
2022-09-06T03:10:43.236Z,14.80
2022-09-06T03:15:50.827Z,15.00
2022-09-06T03:20:56.451Z,15.20
2022-09-06T03:26:02.142Z,15.40
2022-09-06T03:31:05.631Z,15.40
2022-09-06T03:36:11.807Z,15.40
2022-09-06T03:41:15.005Z,15.30
2022-09-06T03:51:49.298Z,15.20
2022-09-06T03:56:52.651Z,15.10
2022-09-06T04:01:55.880Z,14.90
2022-09-06T04:07:02.053Z,14.70
2022-09-06T04:12:08.117Z,14.60
2022-09-06T04:17:12.515Z,14.50
2022-09-06T04:22:17.191Z,14.50
2022-09-06T04:27:20.452Z,14.50
2022-09-06T04:37:53.183Z,14.50
2022-09-06T04:42:56.685Z,14.60
2022-09-06T04:47:59.980Z,14.80
2022-09-06T04:53:04.732Z,14.90
2022-09-06T04:58:07.968Z,14.80
2022-09-06T05:03:11.215Z,14.70
2022-09-06T05:08:16.503Z,14.60
2022-09-06T05:13:19.722Z,14.60
2022-09-06T05:23:55.487Z,14.80
2022-09-06T05:29:02.913Z,15.00
2022-09-06T05:34:06.055Z,15.30
2022-09-06T05:39:11.703Z,15.50
2022-09-06T05:44:15.013Z,15.80
2022-09-06T05:49:18.228Z,16.00
2022-09-06T05:54:22.985Z,16.20
2022-09-06T05:59:31.028Z,16.50
2022-09-06T06:04:35.431Z,16.70
2022-09-06T06:09:40.156Z,16.70
2022-09-06T06:14:43.405Z,17.10
2022-09-06T06:19:46.643Z,17.30
2022-09-06T06:24:51.202Z,17.30
2022-09-06T06:29:54.450Z,17.20
2022-09-06T06:34:58.784Z,17.10
2022-09-06T06:40:03.801Z,17.00
2022-09-06T06:45:09.344Z,17.10
2022-09-06T06:50:12.752Z,17.40
2022-09-06T06:55:17.699Z,19.20
2022-09-06T07:00:22.323Z,23.40
2022-09-06T07:10:53.432Z,28.30
2022-09-06T07:16:11.353Z,27.00
2022-09-06T07:26:41.855Z,26.40
2022-09-06T07:37:08.651Z,26.80
2022-09-06T07:42:13.450Z,25.00
2022-09-06T07:58:06.071Z,23.50
2022-09-06T08:03:09.525Z,23.50
2022-09-06T08:13:39.198Z,27.40
2022-09-06T08:18:42.400Z,29.30
2022-09-06T08:23:48.308Z,30.10
2022-09-06T08:28:57.564Z,30.90
2022-09-06T08:34:02.136Z,32.30
2022-09-06T08:39:07.548Z,31.90
2022-09-06T08:49:39.517Z,30.80
2022-09-06T08:54:49.813Z,30.30
2022-09-06T08:59:58.757Z,31.40
2022-09-06T09:05:07.807Z,31.90
2022-09-06T09:10:15.605Z,32.70
2022-09-06T09:15:23.475Z,31.90
2022-09-06T09:20:26.720Z,31.20
2022-09-06T09:25:34.053Z,32.40
2022-09-06T09:30:52.030Z,32.80
2022-09-06T09:35:56.293Z,31.10
2022-09-06T09:41:02.487Z,30.20
2022-09-06T09:46:28.933Z,30.60
2022-09-06T09:51:34.187Z,29.30
2022-09-06T09:56:46.985Z,28.20
2022-09-06T10:01:53.361Z,27.50
2022-09-06T10:07:10.138Z,27.10
2022-09-06T10:12:30.102Z,27.00
2022-09-06T10:17:36.812Z,27.00
2022-09-06T10:22:52.664Z,27.30
2022-09-06T10:28:23.778Z,27.80
2022-09-06T10:33:36.330Z,28.50
2022-09-06T10:38:50.766Z,28.50
2022-09-06T10:44:04.981Z,27.80
2022-09-06T10:49:13.210Z,27.40
2022-09-06T10:54:19.015Z,27.30
2022-09-06T10:59:35.940Z,27.40
2022-09-06T11:10:15.997Z,27.20
2022-09-06T11:15:22.010Z,26.90
2022-09-06T11:20:34.549Z,26.90
2022-09-06T11:26:10.683Z,26.60
2022-09-06T11:36:50.152Z,26.10
2022-09-06T11:41:53.477Z,26.40
2022-09-06T11:47:04.019Z,26.90
2022-09-06T11:52:59.399Z,28.00
2022-09-06T11:58:10.335Z,28.70
2022-09-06T12:04:04.918Z,30.20
2022-09-06T12:09:31.860Z,30.60
2022-09-06T12:14:40.719Z,29.70
2022-09-06T12:19:46.965Z,29.80
2022-09-06T12:24:56.122Z,29.50
2022-09-06T12:30:04.572Z,29.50
2022-09-06T12:40:46.572Z,28.70
2022-09-06T12:45:52.854Z,29.00
2022-09-06T12:51:03.167Z,29.00
2022-09-06T12:56:08.237Z,29.10
2022-09-06T13:01:18.643Z,29.00
2022-09-06T13:06:27.198Z,29.10
2022-09-06T13:11:34.545Z,29.10
2022-09-06T13:16:45.827Z,29.30
2022-09-06T13:21:49.604Z,29.30
2022-09-06T13:26:54.285Z,29.30
2022-09-06T13:32:00.896Z,28.90
2022-09-06T13:37:09.068Z,28.90
2022-09-06T13:42:25.183Z,29.00
2022-09-06T13:47:30.659Z,28.80
2022-09-06T13:52:33.916Z,29.20
2022-09-06T13:57:42.689Z,29.10
2022-09-06T14:02:49.968Z,29.30
2022-09-06T14:07:53.193Z,29.70
2022-09-06T14:12:56.368Z,29.40
2022-09-06T14:18:01.011Z,28.90
2022-09-06T14:23:04.625Z,28.70
2022-09-06T14:28:08.222Z,28.50
2022-09-06T14:33:12.993Z,28.90
2022-09-06T14:38:16.588Z,28.90
2022-09-06T14:43:20.877Z,28.70
2022-09-06T14:48:30.279Z,28.70
2022-09-06T14:53:40.712Z,28.70
2022-09-06T14:58:44.622Z,28.50
2022-09-06T15:03:51.818Z,28.30
2022-09-06T15:08:59.138Z,28.40
2022-09-06T15:14:04.140Z,28.50
2022-09-06T15:19:09.564Z,28.10
2022-09-06T15:24:13.975Z,27.80
2022-09-06T15:29:21.950Z,27.70
2022-09-06T15:34:27.616Z,27.70
2022-09-06T15:39:30.948Z,27.80
2022-09-06T15:44:34.627Z,27.70
2022-09-06T15:49:40.997Z,27.90
2022-09-06T15:55:02.369Z,28.20
2022-09-06T16:00:06.675Z,27.80
2022-09-06T16:05:11.668Z,27.80
2022-09-06T16:10:15.488Z,27.40
2022-09-06T16:15:18.871Z,26.80
2022-09-06T16:20:23.454Z,26.30
2022-09-06T16:25:27.686Z,26.10
2022-09-06T16:30:30.991Z,26.00
2022-09-06T16:35:38.955Z,26.00
2022-09-06T16:40:45.566Z,25.90
2022-09-06T16:45:58.135Z,25.70
2022-09-06T16:51:15.264Z,25.40
2022-09-06T16:56:20.528Z,25.00
2022-09-06T17:01:24.658Z,24.80
2022-09-06T17:06:30.238Z,24.70
2022-09-06T17:11:33.396Z,24.50
2022-09-06T17:16:53.983Z,24.20
2022-09-06T17:21:59.365Z,23.90
2022-09-06T17:27:02.687Z,23.50
2022-09-06T17:32:10.335Z,23.20
2022-09-06T17:37:15.361Z,23.00
2022-09-06T17:42:18.519Z,22.80
2022-09-06T17:47:21.709Z,22.60
2022-09-06T17:52:27.207Z,22.30
2022-09-06T17:57:30.449Z,22.00
2022-09-06T18:02:33.573Z,21.90
2022-09-06T18:07:38.202Z,21.80
2022-09-06T18:12:41.417Z,21.70
2022-09-06T18:17:44.648Z,21.50
2022-09-06T18:22:49.224Z,21.10
2022-09-06T18:27:52.412Z,21.00
2022-09-06T18:32:55.583Z,21.00
2022-09-06T18:38:00.214Z,21.00
2022-09-06T18:43:03.553Z,20.90
2022-09-06T18:48:06.718Z,20.90
2022-09-06T18:53:11.863Z,20.60
2022-09-06T18:58:15.021Z,20.50
2022-09-06T19:03:18.405Z,20.40
2022-09-06T19:08:23.010Z,20.20
2022-09-06T19:13:26.371Z,19.90
2022-09-06T19:18:30.147Z,19.50
2022-09-06T19:23:36.842Z,19.20
2022-09-06T19:28:40.446Z,19.10
2022-09-06T19:33:45.068Z,18.80
2022-09-06T19:39:03.202Z,18.70
2022-09-06T19:44:09.075Z,18.60
2022-09-06T19:49:12.394Z,18.50
2022-09-06T19:54:17.742Z,18.50
2022-09-06T19:59:21.061Z,18.40
2022-09-06T20:04:25.088Z,18.30
2022-09-06T20:09:29.713Z,18.20
2022-09-06T20:14:32.987Z,18.10
2022-09-06T20:19:36.295Z,18.00
2022-09-06T20:24:40.956Z,17.80
2022-09-06T20:29:44.254Z,17.70
2022-09-06T20:34:48.201Z,17.60
2022-09-06T20:39:52.886Z,17.50
2022-09-06T20:44:56.983Z,17.50
2022-09-06T20:50:00.128Z,17.50
2022-09-06T20:55:05.733Z,17.60
2022-09-06T21:00:14.245Z,17.60
2022-09-06T21:05:17.874Z,17.60
2022-09-06T21:10:22.490Z,17.70
2022-09-06T21:15:25.931Z,17.70
2022-09-06T21:20:29.297Z,17.80
2022-09-06T21:25:34.006Z,17.80
2022-09-06T21:30:37.282Z,17.90
2022-09-06T21:35:42.183Z,17.90
2022-09-06T21:40:46.977Z,17.80
2022-09-06T21:45:50.342Z,17.80
2022-09-06T21:50:53.986Z,17.80
2022-09-06T21:56:02.369Z,17.70
2022-09-06T22:01:07.136Z,17.60
2022-09-06T22:06:11.747Z,17.50
2022-09-06T22:11:19.205Z,17.40
2022-09-06T22:16:25.011Z,17.40
2022-09-06T22:21:28.354Z,17.40
2022-09-06T22:26:34.647Z,17.30
2022-09-06T22:31:38.289Z,17.20
2022-09-06T22:36:45.956Z,17.10
2022-09-06T22:41:50.555Z,17.00
2022-09-06T22:46:53.914Z,17.00
2022-09-06T22:51:57.486Z,16.90
2022-09-06T22:57:02.202Z,17.00
2022-09-06T23:02:05.712Z,17.00
2022-09-06T23:07:09.982Z,17.10
2022-09-06T23:12:14.763Z,17.10
2022-09-06T23:17:18.425Z,17.20
2022-09-06T23:22:21.761Z,17.30
2022-09-06T23:27:26.901Z,17.20
2022-09-06T23:32:30.279Z,17.20
2022-09-06T23:37:33.583Z,17.10
2022-09-06T23:42:38.345Z,17.00
2022-09-06T23:47:43.761Z,16.90
2022-09-06T23:52:47.087Z,16.80
2022-09-06T23:57:51.739Z,16.60
